createdAt,value
2018-11-27T00:00:06.473Z,25.73
2018-11-27T00:01:11.957Z,29.70
2018-11-27T00:02:17.424Z,30.87
2018-11-27T00:03:22.977Z,26.30
2018-11-27T00:04:28.500Z,25.77
2018-11-27T00:05:35.376Z,36.07
2018-11-27T00:06:40.865Z,30.20
2018-11-27T00:07:46.431Z,29.07
2018-11-27T00:08:51.966Z,33.80
2018-11-27T00:09:57.448Z,27.27
2018-11-27T00:11:03.022Z,31.97
2018-11-27T00:12:08.588Z,31.30
2018-11-27T00:13:14.080Z,24.33
2018-11-27T00:14:19.825Z,32.20
2018-11-27T00:15:25.386Z,28.87
2018-11-27T00:16:30.962Z,27.97
2018-11-27T00:17:36.460Z,32.57
2018-11-27T00:18:42.179Z,31.23
2018-11-27T00:19:47.725Z,26.47
2018-11-27T00:20:53.246Z,37.40
2018-11-27T00:21:58.712Z,32.13
2018-11-27T00:23:04.307Z,35.73
2018-11-27T00:24:09.793Z,35.27
2018-11-27T00:25:17.063Z,34.40
2018-11-27T00:26:22.580Z,35.07
2018-11-27T00:27:28.108Z,30.30
2018-11-27T00:28:33.600Z,34.73
2018-11-27T00:29:39.126Z,26.30
2018-11-27T00:30:44.635Z,35.30
2018-11-27T00:31:50.120Z,32.93
2018-11-27T00:32:55.585Z,32.30
2018-11-27T00:34:01.219Z,24.30
2018-11-27T00:35:09.762Z,22.93
2018-11-27T00:36:15.304Z,26.50
2018-11-27T00:37:20.800Z,24.37
2018-11-27T00:38:26.340Z,26.77
2018-11-27T00:39:31.891Z,28.33
2018-11-27T00:40:37.435Z,26.37
2018-11-27T00:41:43.700Z,27.87
2018-11-27T00:42:49.403Z,22.57
2018-11-27T00:43:54.926Z,27.93
2018-11-27T00:45:00.415Z,22.40
2018-11-27T00:46:06.144Z,29.50
2018-11-27T00:47:11.604Z,27.90
2018-11-27T00:48:17.228Z,30.20
2018-11-27T00:49:22.675Z,27.70
2018-11-27T00:50:28.328Z,25.43
2018-11-27T00:51:33.859Z,24.17
2018-11-27T00:52:40.115Z,26.77
2018-11-27T00:53:45.641Z,26.63
2018-11-27T00:54:51.125Z,33.23
2018-11-27T00:55:56.816Z,28.23
2018-11-27T00:57:02.303Z,30.20
2018-11-27T00:58:08.597Z,24.67
2018-11-27T00:59:14.161Z,29.17
2018-11-27T01:00:23.252Z,23.20
2018-11-27T01:01:28.787Z,33.47
2018-11-27T01:02:34.363Z,23.70
2018-11-27T01:03:39.895Z,28.73
2018-11-27T01:04:45.420Z,28.00
2018-11-27T01:05:50.971Z,25.90
2018-11-27T01:06:56.481Z,27.30
2018-11-27T01:08:02.021Z,27.27
2018-11-27T01:09:09.801Z,29.97
2018-11-27T01:10:23.380Z,27.20
2018-11-27T01:11:28.910Z,32.57
2018-11-27T01:12:34.447Z,22.77
2018-11-27T01:13:40.083Z,29.70
2018-11-27T01:14:45.750Z,28.10
2018-11-27T01:15:51.243Z,29.57
2018-11-27T01:16:56.806Z,32.23
2018-11-27T01:18:02.283Z,32.30
2018-11-27T01:19:07.941Z,26.30
2018-11-27T01:20:16.160Z,28.30
2018-11-27T01:21:21.648Z,26.73
2018-11-27T01:22:27.193Z,31.17
2018-11-27T01:23:32.718Z,31.50
2018-11-27T01:24:38.203Z,30.60
2018-11-27T01:25:43.909Z,28.80
2018-11-27T01:26:49.479Z,30.73
2018-11-27T01:27:55.020Z,29.70
2018-11-27T01:29:00.591Z,25.27
2018-11-27T01:30:09.839Z,23.30
2018-11-27T01:31:15.323Z,21.37
2018-11-27T01:32:20.838Z,28.97
2018-11-27T01:33:26.563Z,25.30
2018-11-27T01:34:32.029Z,35.40
2018-11-27T01:35:37.496Z,27.10
2018-11-27T01:36:43.057Z,40.33
2018-11-27T01:37:50.042Z,31.30
2018-11-27T01:38:56.068Z,29.07
2018-11-27T01:40:01.578Z,27.67
2018-11-27T01:41:07.724Z,29.30
2018-11-27T01:42:13.133Z,28.73
2018-11-27T01:43:18.788Z,26.60
2018-11-27T01:44:24.374Z,29.37
2018-11-27T01:45:29.943Z,35.00
2018-11-27T01:46:35.433Z,26.90
2018-11-27T01:47:41.103Z,27.03
2018-11-27T01:48:46.807Z,27.80
2018-11-27T01:49:52.274Z,30.53
2018-11-27T01:50:57.982Z,31.70
2018-11-27T01:52:03.521Z,33.70
2018-11-27T01:53:08.928Z,36.70
2018-11-27T01:54:14.476Z,27.87
2018-11-27T01:55:22.435Z,34.00
2018-11-27T01:56:27.875Z,31.73
2018-11-27T01:57:33.379Z,38.60
2018-11-27T01:58:38.935Z,31.60
2018-11-27T01:59:44.378Z,31.80
2018-11-27T02:00:49.841Z,32.33
2018-11-27T02:01:55.275Z,35.33
2018-11-27T02:03:01.888Z,37.70
2018-11-27T02:04:07.831Z,30.77
2018-11-27T02:05:13.371Z,30.73
2018-11-27T02:06:18.799Z,26.07
2018-11-27T02:07:24.238Z,28.77
2018-11-27T02:08:29.808Z,31.83
2018-11-27T02:09:35.292Z,30.73
2018-11-27T02:10:40.731Z,30.83
2018-11-27T02:11:46.184Z,31.00
2018-11-27T02:12:53.209Z,35.63
2018-11-27T02:13:58.719Z,31.07
2018-11-27T02:15:04.295Z,30.87
2018-11-27T02:16:09.836Z,31.63
2018-11-27T02:17:15.261Z,30.30
2018-11-27T02:18:20.873Z,32.67
2018-11-27T02:19:26.303Z,36.60
2018-11-27T02:20:31.840Z,33.03
2018-11-27T02:21:37.406Z,31.97
2018-11-27T02:22:43.159Z,29.07
2018-11-27T02:23:48.872Z,37.80
2018-11-27T02:24:54.320Z,32.60
2018-11-27T02:25:59.864Z,33.90
2018-11-27T02:27:05.717Z,38.60
2018-11-27T02:28:11.150Z,37.53
2018-11-27T02:29:16.751Z,41.27
2018-11-27T02:30:23.777Z,37.50
2018-11-27T02:31:29.311Z,46.83
2018-11-27T02:32:34.786Z,38.60
2018-11-27T02:33:40.522Z,40.10
2018-11-27T02:34:46.272Z,37.40
2018-11-27T02:35:51.714Z,42.70
2018-11-27T02:36:57.236Z,38.50
2018-11-27T02:38:02.809Z,36.43
2018-11-27T02:39:08.657Z,30.63
2018-11-27T02:40:18.753Z,34.07
2018-11-27T02:41:24.409Z,29.13
2018-11-27T02:42:30.048Z,34.10
2018-11-27T02:43:35.565Z,34.63
2018-11-27T02:44:41.083Z,33.60
2018-11-27T02:45:46.601Z,33.13
2018-11-27T02:46:52.032Z,32.37
2018-11-27T02:47:57.589Z,29.13
2018-11-27T02:49:03.116Z,24.00
2018-11-27T02:50:11.111Z,24.57
2018-11-27T02:51:16.702Z,23.60
2018-11-27T02:52:22.187Z,30.73
2018-11-27T02:53:27.674Z,25.80
2018-11-27T02:54:33.182Z,26.30
2018-11-27T02:55:38.780Z,21.50
2018-11-27T02:56:44.392Z,22.23
2018-11-27T02:57:49.919Z,22.17
2018-11-27T02:58:55.482Z,28.17
2018-11-27T03:00:00.924Z,26.47
2018-11-27T03:01:06.749Z,23.73
2018-11-27T03:02:12.357Z,24.03
2018-11-27T03:03:17.908Z,28.53
2018-11-27T03:04:23.521Z,27.43
2018-11-27T03:05:33.280Z,28.27
2018-11-27T03:06:38.748Z,26.80
2018-11-27T03:07:44.333Z,27.77
2018-11-27T03:08:49.856Z,26.33
2018-11-27T03:09:55.441Z,23.80
2018-11-27T03:11:00.904Z,29.33
2018-11-27T03:12:06.583Z,22.97
2018-11-27T03:13:12.340Z,24.30
2018-11-27T03:14:17.866Z,21.37
2018-11-27T03:15:23.429Z,23.90
2018-11-27T03:16:28.859Z,26.93
2018-11-27T03:17:34.385Z,26.60
2018-11-27T03:18:40.181Z,24.60
2018-11-27T03:19:45.647Z,22.23
2018-11-27T03:20:51.091Z,25.87
2018-11-27T03:21:56.556Z,24.60
2018-11-27T03:23:02.143Z,26.37
2018-11-27T03:24:07.854Z,22.40
2018-11-27T03:25:16.913Z,21.40
2018-11-27T03:26:22.541Z,28.40
2018-11-27T03:27:28.046Z,30.20
2018-11-27T03:28:33.567Z,23.80
2018-11-27T03:29:39.194Z,23.40
2018-11-27T03:30:44.658Z,21.47
2018-11-27T03:31:50.117Z,21.77
2018-11-27T03:32:55.674Z,27.47
2018-11-27T03:34:01.092Z,24.80
2018-11-27T03:35:08.732Z,23.50
2018-11-27T03:36:14.243Z,24.83
2018-11-27T03:37:19.767Z,25.63
2018-11-27T03:38:25.231Z,21.50
2018-11-27T03:39:30.849Z,22.77
2018-11-27T03:40:36.415Z,24.07
2018-11-27T03:41:41.920Z,24.93
2018-11-27T03:42:47.503Z,23.43
2018-11-27T03:43:53.046Z,27.30
2018-11-27T03:44:58.549Z,27.33
2018-11-27T03:46:04.132Z,23.97
2018-11-27T03:47:09.631Z,25.40
2018-11-27T03:48:15.063Z,23.23
2018-11-27T03:49:20.689Z,22.90
2018-11-27T03:50:30.037Z,23.73
2018-11-27T03:51:35.780Z,19.70
2018-11-27T03:52:41.265Z,21.30
2018-11-27T03:53:46.836Z,23.13
2018-11-27T03:54:52.313Z,23.70
2018-11-27T03:55:57.843Z,23.00
2018-11-27T03:57:03.413Z,26.80
2018-11-27T03:58:08.993Z,19.77
2018-11-27T03:59:14.676Z,23.57
2018-11-27T04:00:28.323Z,22.50
2018-11-27T04:01:33.845Z,28.03
2018-11-27T04:02:39.524Z,23.53
2018-11-27T04:03:45.065Z,25.40
2018-11-27T04:04:50.639Z,23.83
2018-11-27T04:05:56.144Z,23.50
2018-11-27T04:07:01.675Z,19.80
2018-11-27T04:08:09.295Z,23.57
2018-11-27T04:09:14.876Z,22.17
2018-11-27T04:10:21.191Z,25.57
2018-11-27T04:11:26.616Z,22.23
2018-11-27T04:12:32.043Z,22.47
2018-11-27T04:13:37.489Z,21.53
2018-11-27T04:14:42.951Z,25.70
2018-11-27T04:15:48.427Z,22.43
2018-11-27T04:16:54.303Z,22.67
2018-11-27T04:17:59.766Z,23.57
2018-11-27T04:19:05.562Z,21.20
2018-11-27T04:20:12.418Z,23.17
2018-11-27T04:21:17.941Z,26.87
2018-11-27T04:22:23.513Z,26.40
2018-11-27T04:23:29.062Z,30.17
2018-11-27T04:24:34.543Z,32.23
2018-11-27T04:25:40.135Z,20.60
2018-11-27T04:26:45.568Z,22.37
2018-11-27T04:27:51.119Z,21.50
2018-11-27T04:28:56.583Z,22.70
2018-11-27T04:30:02.014Z,21.80
2018-11-27T04:31:07.512Z,26.23
2018-11-27T04:32:13.053Z,22.53
2018-11-27T04:33:18.544Z,21.70
2018-11-27T04:34:24.007Z,22.23
2018-11-27T04:35:29.494Z,20.73
2018-11-27T04:36:34.995Z,24.83
2018-11-27T04:37:40.572Z,23.80
2018-11-27T04:38:46.095Z,18.30
2018-11-27T04:39:51.620Z,17.90
2018-11-27T04:40:57.159Z,24.10
2018-11-27T04:42:02.704Z,22.13
2018-11-27T04:43:08.339Z,20.70
2018-11-27T04:44:13.813Z,29.93
2018-11-27T04:45:24.341Z,17.93
2018-11-27T04:46:29.902Z,22.50
2018-11-27T04:47:35.442Z,18.70
2018-11-27T04:48:41.030Z,23.70
2018-11-27T04:49:46.632Z,20.90
2018-11-27T04:50:52.032Z,28.67
2018-11-27T04:51:57.652Z,24.60
2018-11-27T04:53:03.138Z,24.90
2018-11-27T04:54:08.581Z,19.07
2018-11-27T04:55:16.538Z,24.53
2018-11-27T04:56:22.051Z,21.67
2018-11-27T04:57:27.585Z,21.07
2018-11-27T04:58:33.101Z,17.47
2018-11-27T04:59:38.575Z,21.50
2018-11-27T05:00:44.149Z,27.00
2018-11-27T05:01:49.673Z,21.07
2018-11-27T05:02:55.199Z,22.23
2018-11-27T05:04:00.734Z,19.67
2018-11-27T05:05:07.205Z,20.47
2018-11-27T05:06:12.812Z,23.57
2018-11-27T05:07:18.384Z,23.67
2018-11-27T05:08:23.981Z,22.63
2018-11-27T05:09:29.520Z,18.07
2018-11-27T05:10:35.038Z,24.53
2018-11-27T05:11:40.528Z,19.83
2018-11-27T05:12:46.140Z,20.85
2018-11-27T05:13:51.700Z,25.53
2018-11-27T05:14:58.893Z,28.70
2018-11-27T05:16:04.972Z,24.77
2018-11-27T05:17:10.403Z,24.40
2018-11-27T05:18:16.048Z,20.87
2018-11-27T05:19:21.600Z,21.73
2018-11-27T05:20:27.133Z,22.43
2018-11-27T05:21:32.908Z,18.17
2018-11-27T05:22:38.736Z,22.73
2018-11-27T05:23:44.421Z,20.43
2018-11-27T05:24:49.916Z,21.60
2018-11-27T05:25:55.831Z,21.73
2018-11-27T05:27:01.355Z,23.77
2018-11-27T05:28:07.111Z,23.80
2018-11-27T05:29:12.592Z,21.20
2018-11-27T05:30:26.897Z,21.27
2018-11-27T05:31:32.555Z,18.67
2018-11-27T05:32:37.969Z,22.10
2018-11-27T05:33:43.461Z,22.30
2018-11-27T05:34:48.883Z,22.40
2018-11-27T05:35:54.364Z,17.47
2018-11-27T05:36:59.792Z,26.97
2018-11-27T05:38:05.467Z,24.77
2018-11-27T05:39:11.017Z,24.50
2018-11-27T05:40:24.285Z,25.37
2018-11-27T05:41:29.784Z,20.00
2018-11-27T05:42:35.272Z,27.67
2018-11-27T05:43:46.057Z,21.83
2018-11-27T05:44:46.239Z,16.90
2018-11-27T05:45:51.796Z,19.47
2018-11-27T05:46:57.358Z,19.37
2018-11-27T05:48:02.805Z,25.00
2018-11-27T05:49:08.327Z,26.60
2018-11-27T05:50:15.507Z,24.60
2018-11-27T05:51:21.112Z,19.60
2018-11-27T05:52:26.613Z,21.70
2018-11-27T05:53:32.252Z,29.60
2018-11-27T05:54:37.883Z,26.13
2018-11-27T05:55:43.303Z,31.83
2018-11-27T05:56:48.928Z,21.77
2018-11-27T05:57:56.317Z,24.93
2018-11-27T05:59:01.845Z,22.90
2018-11-27T06:00:16.233Z,21.57
2018-11-27T06:01:21.762Z,23.50
2018-11-27T06:02:27.433Z,25.63
2018-11-27T06:03:32.963Z,26.13
2018-11-27T06:04:38.491Z,24.97
2018-11-27T06:05:44.027Z,21.80
2018-11-27T06:06:49.494Z,24.53
2018-11-27T06:07:55.075Z,21.17
2018-11-27T06:09:00.561Z,28.20
2018-11-27T06:10:06.591Z,22.90
2018-11-27T06:11:12.032Z,28.93
2018-11-27T06:12:17.461Z,25.10
2018-11-27T06:13:23.176Z,28.23
2018-11-27T06:14:28.753Z,27.98
2018-11-27T06:15:34.180Z,25.50
2018-11-27T06:16:39.782Z,24.33
2018-11-27T06:17:45.941Z,27.53
2018-11-27T06:18:51.500Z,26.93
2018-11-27T06:19:57.100Z,20.83
2018-11-27T06:21:02.728Z,31.00
2018-11-27T06:22:08.267Z,25.43
2018-11-27T06:23:13.740Z,22.27
2018-11-27T06:24:19.268Z,26.50
2018-11-27T06:25:26.621Z,26.53
2018-11-27T06:26:32.082Z,20.43
2018-11-27T06:27:37.595Z,23.77
2018-11-27T06:28:43.172Z,23.77
2018-11-27T06:29:48.621Z,25.97
2018-11-27T06:30:54.069Z,23.30
2018-11-27T06:31:59.620Z,24.47
2018-11-27T06:33:05.531Z,26.48
2018-11-27T06:34:10.963Z,24.23
2018-11-27T06:35:19.663Z,28.40
2018-11-27T06:36:25.081Z,28.90
2018-11-27T06:37:30.511Z,30.67
2018-11-27T06:38:36.235Z,23.57
2018-11-27T06:39:41.687Z,25.70
2018-11-27T06:40:47.409Z,29.60
2018-11-27T06:41:52.965Z,23.30
2018-11-27T06:42:58.508Z,22.30
2018-11-27T06:44:04.232Z,26.00
2018-11-27T06:45:18.931Z,24.57
2018-11-27T06:46:24.508Z,25.17
2018-11-27T06:47:30.037Z,26.33
2018-11-27T06:48:35.552Z,29.00
2018-11-27T06:49:41.071Z,22.47
2018-11-27T06:50:46.616Z,28.13
2018-11-27T06:51:52.092Z,23.30
2018-11-27T06:52:57.722Z,26.77
2018-11-27T06:54:03.342Z,26.17
2018-11-27T06:55:11.842Z,26.30
2018-11-27T06:56:17.401Z,26.10
2018-11-27T06:57:23.002Z,26.90
2018-11-27T06:58:28.708Z,28.73
2018-11-27T06:59:34.371Z,24.30
2018-11-27T07:00:39.960Z,27.50
2018-11-27T07:01:45.458Z,30.37
2018-11-27T07:02:50.959Z,28.20
2018-11-27T07:03:56.399Z,24.43
2018-11-27T07:05:01.919Z,26.63
2018-11-27T07:06:07.420Z,31.70
2018-11-27T07:07:12.944Z,25.23
2018-11-27T07:08:18.451Z,24.65
2018-11-27T07:09:23.903Z,23.30
2018-11-27T07:10:31.516Z,28.30
2018-11-27T07:11:36.942Z,22.67
2018-11-27T07:12:42.392Z,25.80
2018-11-27T07:13:47.924Z,30.10
2018-11-27T07:14:53.360Z,26.43
2018-11-27T07:15:58.850Z,23.73
2018-11-27T07:17:04.386Z,29.23
2018-11-27T07:18:10.409Z,28.93
2018-11-27T07:19:15.961Z,25.70
2018-11-27T07:20:21.472Z,24.73
2018-11-27T07:21:26.972Z,25.40
2018-11-27T07:22:32.500Z,30.03
2018-11-27T07:23:37.988Z,31.75
2018-11-27T07:24:43.580Z,28.97
2018-11-27T07:25:49.132Z,27.57
2018-11-27T07:26:54.584Z,24.97
2018-11-27T07:28:00.039Z,26.37
2018-11-27T07:29:05.641Z,30.73
2018-11-27T07:30:26.931Z,26.10
2018-11-27T07:31:32.639Z,30.23
2018-11-27T07:32:38.112Z,27.13
2018-11-27T07:33:43.587Z,27.20
2018-11-27T07:34:49.075Z,31.33
2018-11-27T07:35:54.603Z,33.63
2018-11-27T07:37:00.192Z,30.50
2018-11-27T07:38:06.308Z,36.50
2018-11-27T07:39:11.763Z,34.53
2018-11-27T07:40:25.140Z,34.00
2018-11-27T07:41:30.773Z,27.02
2018-11-27T07:42:36.280Z,29.43
2018-11-27T07:43:41.957Z,27.67
2018-11-27T07:44:47.468Z,28.50
2018-11-27T07:45:55.153Z,28.57
2018-11-27T07:46:58.520Z,27.60
2018-11-27T07:48:04.055Z,28.20
2018-11-27T07:49:09.632Z,35.87
2018-11-27T07:50:16.211Z,33.70
2018-11-27T07:51:21.770Z,36.57
2018-11-27T07:52:27.295Z,28.47
2018-11-27T07:53:32.855Z,28.67
2018-11-27T07:54:38.355Z,33.75
2018-11-27T07:55:43.904Z,30.00
2018-11-27T07:56:49.382Z,27.00
2018-11-27T07:57:55.843Z,28.23
2018-11-27T07:59:01.429Z,37.53
2018-11-27T08:00:13.036Z,29.43
2018-11-27T08:01:18.632Z,32.73
2018-11-27T08:02:24.267Z,32.17
2018-11-27T08:03:29.823Z,26.83
2018-11-27T08:04:35.332Z,29.20
2018-11-27T08:05:42.004Z,31.40
2018-11-27T08:06:47.543Z,29.50
2018-11-27T08:07:54.858Z,32.73
2018-11-27T08:09:00.320Z,33.20
2018-11-27T08:10:11.914Z,30.50
2018-11-27T08:11:17.408Z,31.30
2018-11-27T08:12:22.959Z,26.10
2018-11-27T08:13:28.607Z,29.05
2018-11-27T08:14:34.099Z,27.40
2018-11-27T08:15:39.635Z,28.50
2018-11-27T08:16:45.103Z,30.50
2018-11-27T08:17:50.687Z,28.80
2018-11-27T08:18:56.243Z,29.07
2018-11-27T08:20:01.711Z,26.20
2018-11-27T08:21:07.484Z,28.10
2018-11-27T08:22:13.108Z,27.30
2018-11-27T08:23:18.691Z,28.52
2018-11-27T08:24:24.217Z,28.27
2018-11-27T08:25:29.719Z,31.05
2018-11-27T08:26:35.225Z,37.80
2018-11-27T08:27:40.700Z,30.20
2018-11-27T08:28:46.139Z,26.23
2018-11-27T08:29:51.741Z,33.40
2018-11-27T08:30:57.303Z,30.50
2018-11-27T08:32:03.011Z,34.00
2018-11-27T08:33:08.707Z,30.70
2018-11-27T08:34:14.161Z,30.80
2018-11-27T08:35:22.388Z,28.70
2018-11-27T08:36:28.018Z,30.62
2018-11-27T08:37:33.664Z,33.63
2018-11-27T08:38:39.147Z,34.47
2018-11-27T08:39:44.623Z,31.77
2018-11-27T08:40:50.082Z,32.80
2018-11-27T08:41:55.603Z,35.00
2018-11-27T08:43:01.164Z,28.67
2018-11-27T08:44:06.901Z,35.90
2018-11-27T08:45:18.964Z,32.33
2018-11-27T08:46:24.435Z,31.23
2018-11-27T08:47:29.879Z,30.67
2018-11-27T08:48:35.582Z,34.50
2018-11-27T08:49:41.109Z,30.67
2018-11-27T08:50:46.605Z,26.70
2018-11-27T08:51:52.092Z,29.80
2018-11-27T08:53:01.355Z,31.90
2018-11-27T08:54:07.596Z,36.13
2018-11-27T08:55:16.059Z,33.30
2018-11-27T08:56:21.583Z,31.60
2018-11-27T08:57:27.068Z,30.10
2018-11-27T08:58:32.611Z,32.55
2018-11-27T08:59:38.293Z,30.90
2018-11-27T09:00:43.889Z,28.50
2018-11-27T09:01:49.423Z,29.98
2018-11-27T09:02:54.940Z,27.48
2018-11-27T09:04:00.495Z,29.40
2018-11-27T09:05:06.569Z,29.10
2018-11-27T09:06:12.123Z,35.40
2018-11-27T09:07:17.613Z,30.70
2018-11-27T09:08:23.219Z,26.50
2018-11-27T09:09:28.734Z,25.93
2018-11-27T09:10:34.436Z,29.98
2018-11-27T09:11:39.913Z,28.13
2018-11-27T09:12:45.427Z,30.72
2018-11-27T09:13:51.098Z,29.30
2018-11-27T09:14:56.611Z,36.13
2018-11-27T09:16:02.213Z,28.13
2018-11-27T09:17:08.406Z,29.90
2018-11-27T09:18:28.399Z,28.25
2018-11-27T09:19:33.905Z,27.67
2018-11-27T09:20:39.392Z,29.43
2018-11-27T09:21:45.043Z,28.73
2018-11-27T09:22:50.583Z,28.97
2018-11-27T09:23:56.147Z,30.08
2018-11-27T09:25:01.700Z,29.82
2018-11-27T09:26:07.743Z,36.73
2018-11-27T09:27:13.247Z,27.17
2018-11-27T09:28:18.871Z,29.33
2018-11-27T09:29:24.807Z,35.07
2018-11-27T09:30:29.988Z,31.10
2018-11-27T09:31:35.468Z,31.40
2018-11-27T09:32:41.014Z,30.97
2018-11-27T09:33:46.476Z,27.37
2018-11-27T09:34:52.025Z,29.83
2018-11-27T09:35:57.912Z,36.03
2018-11-27T09:37:03.485Z,29.50
2018-11-27T09:38:09.808Z,28.27
2018-11-27T09:39:15.448Z,28.30
2018-11-27T09:40:21.619Z,37.75
2018-11-27T09:41:27.176Z,33.67
2018-11-27T09:42:32.712Z,34.73
2018-11-27T09:43:38.319Z,39.13
2018-11-27T09:44:43.844Z,27.40
2018-11-27T09:45:50.356Z,29.27
2018-11-27T09:46:55.842Z,32.93
2018-11-27T09:48:01.655Z,32.23
2018-11-27T09:49:08.326Z,31.63
2018-11-27T09:50:14.984Z,32.70
2018-11-27T09:51:20.529Z,35.20
2018-11-27T09:52:26.068Z,33.63
2018-11-27T09:53:31.643Z,28.43
2018-11-27T09:54:37.132Z,29.02
2018-11-27T09:55:42.573Z,30.60
2018-11-27T09:56:47.972Z,28.67
2018-11-27T09:57:58.780Z,31.20
2018-11-27T09:58:59.050Z,34.30
2018-11-27T10:00:05.428Z,29.00
2018-11-27T10:01:11.009Z,34.38
2018-11-27T10:02:16.520Z,39.53
2018-11-27T10:03:21.990Z,33.67
2018-11-27T10:04:27.545Z,33.50
2018-11-27T10:05:33.128Z,28.42
2018-11-27T10:06:38.635Z,32.47
2018-11-27T10:07:44.251Z,34.58
2018-11-27T10:08:49.676Z,34.77
2018-11-27T10:09:55.290Z,37.17
2018-11-27T10:11:00.976Z,32.70
2018-11-27T10:12:06.940Z,34.03
2018-11-27T10:13:12.523Z,43.50
2018-11-27T10:14:18.061Z,35.20
2018-11-27T10:15:28.196Z,25.40
2018-11-27T10:16:33.687Z,32.27
2018-11-27T10:17:39.158Z,32.00
2018-11-27T10:18:44.900Z,30.73
2018-11-27T10:19:50.307Z,28.60
2018-11-27T10:20:55.770Z,33.97
2018-11-27T10:22:01.274Z,32.50
2018-11-27T10:23:12.723Z,29.52
2018-11-27T10:24:18.470Z,31.90
2018-11-27T10:25:23.996Z,27.30
2018-11-27T10:26:29.569Z,29.00
2018-11-27T10:27:35.174Z,27.53
2018-11-27T10:28:40.746Z,34.43
2018-11-27T10:29:46.283Z,29.63
2018-11-27T10:30:51.765Z,32.17
2018-11-27T10:31:57.263Z,31.10
2018-11-27T10:33:02.850Z,30.97
2018-11-27T10:34:08.495Z,27.90
2018-11-27T10:35:18.084Z,32.43
2018-11-27T10:36:23.525Z,36.40
2018-11-27T10:37:29.043Z,33.77
2018-11-27T10:38:34.635Z,28.53
2018-11-27T10:39:40.190Z,31.93
2018-11-27T10:40:46.373Z,31.33
2018-11-27T10:41:51.932Z,37.90
2018-11-27T10:42:57.474Z,30.47
2018-11-27T10:44:03.011Z,28.37
2018-11-27T10:45:14.736Z,33.20
2018-11-27T10:46:20.331Z,31.50
2018-11-27T10:47:25.887Z,30.13
2018-11-27T10:48:31.449Z,35.10
2018-11-27T10:49:38.144Z,33.77
2018-11-27T10:50:42.616Z,39.43
2018-11-27T10:51:48.260Z,31.70
2018-11-27T10:52:56.628Z,32.43
2018-11-27T10:54:02.016Z,31.97
2018-11-27T10:55:10.355Z,41.00
2018-11-27T10:56:15.891Z,34.73
2018-11-27T10:57:21.459Z,30.47
2018-11-27T10:58:26.948Z,31.00
2018-11-27T10:59:32.462Z,28.90
2018-11-27T11:00:44.877Z,35.63
2018-11-27T11:01:54.070Z,32.27
2018-11-27T11:03:05.799Z,32.00
2018-11-27T11:04:11.275Z,37.00
2018-11-27T11:05:16.927Z,38.20
2018-11-27T11:06:22.407Z,39.70
2018-11-27T11:07:27.876Z,34.40
2018-11-27T11:08:33.351Z,36.13
2018-11-27T11:09:38.927Z,40.33
2018-11-27T11:10:44.364Z,32.93
2018-11-27T11:11:49.777Z,32.13
2018-11-27T11:12:55.310Z,47.30
2018-11-27T11:14:01.112Z,37.73
2018-11-27T11:15:08.151Z,32.90
2018-11-27T11:16:13.610Z,30.30
2018-11-27T11:17:19.074Z,41.27
2018-11-27T11:18:24.595Z,26.67
2018-11-27T11:19:30.208Z,32.83
2018-11-27T11:20:35.729Z,34.27
2018-11-27T11:21:41.220Z,30.30
2018-11-27T11:22:46.765Z,28.83
2018-11-27T11:23:52.260Z,31.97
2018-11-27T11:24:57.995Z,35.13
2018-11-27T11:26:03.557Z,29.33
2018-11-27T11:27:09.105Z,31.90
2018-11-27T11:28:14.693Z,30.53
2018-11-27T11:29:20.335Z,33.33
2018-11-27T11:30:25.889Z,35.60
2018-11-27T11:31:31.407Z,35.10
2018-11-27T11:32:37.187Z,31.70
2018-11-27T11:33:42.695Z,33.77
2018-11-27T11:34:48.119Z,38.37
2018-11-27T11:35:53.664Z,30.57
2018-11-27T11:36:59.165Z,32.17
2018-11-27T11:38:04.863Z,30.00
2018-11-27T11:39:11.592Z,34.80
2018-11-27T11:40:18.847Z,35.73
2018-11-27T11:41:24.439Z,35.23
2018-11-27T11:42:29.934Z,36.57
2018-11-27T11:43:35.803Z,35.37
2018-11-27T11:44:41.297Z,28.67
2018-11-27T11:45:46.736Z,31.67
2018-11-27T11:46:52.289Z,36.53
2018-11-27T11:47:57.806Z,33.40
2018-11-27T11:49:03.284Z,33.27
2018-11-27T11:50:18.432Z,32.03
2018-11-27T11:51:24.010Z,32.57
2018-11-27T11:52:29.572Z,33.90
2018-11-27T11:53:34.982Z,32.57
2018-11-27T11:54:40.908Z,29.53
2018-11-27T11:55:47.610Z,31.93
2018-11-27T11:56:53.099Z,36.77
2018-11-27T11:57:59.055Z,31.57
2018-11-27T11:59:04.796Z,29.17
2018-11-27T12:00:26.895Z,37.27
2018-11-27T12:01:32.415Z,34.67
2018-11-27T12:02:37.931Z,32.07
2018-11-27T12:03:43.515Z,28.10
2018-11-27T12:04:49.053Z,31.00
2018-11-27T12:05:54.736Z,36.43
2018-11-27T12:07:00.499Z,32.47
2018-11-27T12:08:08.125Z,32.27
2018-11-27T12:09:13.644Z,31.67
2018-11-27T12:10:19.077Z,34.90
2018-11-27T12:11:24.655Z,34.10
2018-11-27T12:12:30.157Z,34.13
2018-11-27T12:13:35.699Z,34.70
2018-11-27T12:14:41.119Z,35.17
2018-11-27T12:15:46.559Z,32.00
2018-11-27T12:16:52.266Z,33.67
2018-11-27T12:17:57.784Z,33.10
2018-11-27T12:19:03.491Z,29.30
2018-11-27T12:20:12.365Z,34.53
2018-11-27T12:21:17.877Z,31.63
2018-11-27T12:22:23.319Z,31.00
2018-11-27T12:23:28.819Z,30.23
2018-11-27T12:24:34.327Z,32.17
2018-11-27T12:25:40.959Z,33.97
2018-11-27T12:26:46.580Z,34.40
2018-11-27T12:27:52.047Z,32.17
2018-11-27T12:28:57.706Z,31.60
2018-11-27T12:30:03.247Z,32.17
2018-11-27T12:31:08.887Z,29.80
2018-11-27T12:32:14.404Z,35.93
2018-11-27T12:33:19.890Z,37.80
2018-11-27T12:34:25.825Z,32.43
2018-11-27T12:35:31.231Z,29.43
2018-11-27T12:36:36.684Z,30.30
2018-11-27T12:37:42.452Z,29.63
2018-11-27T12:38:47.979Z,33.57
2018-11-27T12:39:53.538Z,31.67
2018-11-27T12:40:58.976Z,35.77
2018-11-27T12:42:04.531Z,26.33
2018-11-27T12:43:09.977Z,30.50
2018-11-27T12:44:15.516Z,36.27
2018-11-27T12:45:28.132Z,32.37
2018-11-27T12:46:33.660Z,36.60
2018-11-27T12:47:39.431Z,28.50
2018-11-27T12:48:44.928Z,30.20
2018-11-27T12:49:50.366Z,26.60
2018-11-27T12:50:56.149Z,32.33
2018-11-27T12:52:01.634Z,34.73
2018-11-27T12:53:09.163Z,31.50
2018-11-27T12:54:14.671Z,29.27
2018-11-27T12:55:21.915Z,29.27
2018-11-27T12:56:27.596Z,32.83
2018-11-27T12:57:33.095Z,32.70
2018-11-27T12:58:38.623Z,27.77
2018-11-27T12:59:44.185Z,30.30
2018-11-27T13:00:49.671Z,29.37
2018-11-27T13:01:55.229Z,33.03
2018-11-27T13:03:00.652Z,37.13
2018-11-27T13:04:06.769Z,32.20
2018-11-27T13:05:14.428Z,34.70
2018-11-27T13:06:19.971Z,35.70
2018-11-27T13:07:25.411Z,27.47
2018-11-27T13:08:30.935Z,28.93
2018-11-27T13:09:36.359Z,31.87
2018-11-27T13:10:41.949Z,31.83
2018-11-27T13:11:47.472Z,25.83
2018-11-27T13:12:52.884Z,34.40
2018-11-27T13:13:58.410Z,30.97
2018-11-27T13:15:03.895Z,29.70
2018-11-27T13:16:09.423Z,32.33
2018-11-27T13:17:14.947Z,30.33
2018-11-27T13:18:20.560Z,32.03
2018-11-27T13:19:26.225Z,36.47
2018-11-27T13:20:31.729Z,33.03
2018-11-27T13:21:37.259Z,32.80
2018-11-27T13:22:43.511Z,30.17
2018-11-27T13:23:48.349Z,31.50
2018-11-27T13:24:53.860Z,34.53
2018-11-27T13:25:59.576Z,32.40
2018-11-27T13:27:05.206Z,31.17
2018-11-27T13:28:12.465Z,36.17
2018-11-27T13:29:17.964Z,29.80
2018-11-27T13:30:32.520Z,31.53
2018-11-27T13:31:38.079Z,34.73
2018-11-27T13:32:44.103Z,39.60
2018-11-27T13:34:01.388Z,32.47
2018-11-27T13:35:09.186Z,37.67
2018-11-27T13:36:14.733Z,32.43
2018-11-27T13:37:20.240Z,34.67
2018-11-27T13:38:26.279Z,30.57
2018-11-27T13:39:38.674Z,31.30
2018-11-27T13:40:44.496Z,30.60
2018-11-27T13:41:50.237Z,31.53
2018-11-27T13:42:55.647Z,39.27
2018-11-27T13:44:01.119Z,31.97
2018-11-27T13:45:12.013Z,33.63
2018-11-27T13:46:17.587Z,32.80
2018-11-27T13:47:23.250Z,33.20
2018-11-27T13:48:28.739Z,33.70
2018-11-27T13:49:34.274Z,29.43
2018-11-27T13:50:39.700Z,37.17
2018-11-27T13:51:45.184Z,31.13
2018-11-27T13:52:50.842Z,35.83
2018-11-27T13:53:56.377Z,34.50
2018-11-27T13:55:01.964Z,27.90
2018-11-27T13:56:07.693Z,35.57
2018-11-27T13:57:13.166Z,29.87
2018-11-27T13:58:18.685Z,28.70
2018-11-27T13:59:24.172Z,33.20
2018-11-27T14:00:30.608Z,31.40
2018-11-27T14:01:37.817Z,35.40
2018-11-27T14:02:42.408Z,32.67
2018-11-27T14:03:48.022Z,36.50
2018-11-27T14:04:54.005Z,32.67
2018-11-27T14:05:59.582Z,30.53
2018-11-27T14:07:05.600Z,47.60
2018-11-27T14:08:12.441Z,38.47
2018-11-27T14:09:17.920Z,32.87